Bowie - northern half: Past 24 Hour Conditions

 

Stony Rapids Airport

11:00 PM CST 30 January 2015
Disclaimer

This table is a summary of hourly weather conditions for the past 24 hours.
Please note that these observations might not always be representative of weather conditions over their associated marine area.

Date / Time
(CST)
Wind(knots) Conditions Visibility(km) Pressure(kPa) Air tempC) Relative humidity(%) Dew pointC) Wind Chill
30 January 2015
23:00 W 6 Clear 16 104.3 -34 69 -38 -44
22:00 W 4 Clear 16 104.3 -34 68 -38 -42
21:00 W 5 Clear 16 104.2 -32 65 -36 -41
20:00 W 7 Clear 16 104.2 -31 64 -36 -42
19:00 W 7 Clear 16 104.1 -30 63 -35 -41
18:00 W 5 Clear 16 104.1 -30 59 -36 -39
17:00 WNW 5 Sunny 16 104.0 -29 57 -35 -37
16:00 WNW 10 Sunny 16 103.9 -28 54 -34 -40
15:00 WNW 9 Sunny 16 103.8 -28 55 -34 -39
14:00 WNW 7 Sunny 16 103.8 -28 57 -34 -38
13:00 NW 10 gust 15 Sunny 16 103.7 -28 64 -33 -40
12:00 WNW 7 Sunny 16 103.6 -29 71 -32 -39
11:00 W 7 Sunny 16 103.5 -29 73 -33 -40
10:00 W 3 Sunny 16 103.4 -32 71 -35 -37
9:00 W 6 Light Snow 16 103.3 -33 71 -36 -43
8:00 W 6 Clear 16 103.2 -32 72 -35 -42
7:00 W 7 Clear 16 103.2 -32 72 -35 -42
6:00 W 5 Clear 16 103.1 -33 70 -37 -42
5:00 W 5 Clear 16 103.1 -34 71 -37 -43
4:00 WNW 4 Clear 16 103.0 -33 71 -37 -42
3:00 WSW 4 Clear 16 103.0 -36 68 -40 -45
2:00 WSW 4 Clear 16 103.0 -35 69 -39 -44
1:00 SW 2 Mainly Clear 16 103.0 -33 70 -37 -38
0:00 calm Cloudy 16 103.0 -33 71 -36 *
29 January 2015
23:00 ESE 2 Mostly Cloudy 16 103.0 -34 70 -38 -39
Map of Mackenzie - Mackenzie River marine weather areas Great Slave Lake - 45141 Great Slave Lake North Arm - 45150 Herschel Island Komakuk Beach Shingle Point Airport Aklavik Airport Cape Parry Airport Fort Good Hope Airport Tulita Airport Fort Providence Fort Reliance Fort Resolution Airport Fort Simpson Airport Hay River/Merlyn Carter Airport Inner Whaleback Rocks Inuvik Airport Keats Point Norman Wells Airport Paulatuk Airport Pelly Island Tuktoyaktuk Airport Wrigley Airport Yellowknife Airport Kugluktuk Airport Hat Island Cambridge Bay Airport Cape Peel West Stefansson Island Ulukhaktok Airport Sachs Harbour Airport Thomsen River Egg Island Fort Chipewyan Airport Stony Rapids Airport Liverpool Bay Little Chicago Lutselke Airport Storm Hills Croker River Prairie River Uranium City Cape Providence Tuktoyaktuk Bathurst Inlet Gateshead Island
Legend:
buoy Buoy
land station Land Station

Mackenzie - Mackenzie River Area

Another Region

What we are doing

Date modified: